sensor_id;sensor_type;location;lat;lon;timestamp;P1;durP1;ratioP1;P2;durP2;ratioP2
69325;SDS011;56471;53.508;49.252;2022-11-15T00:01:46;1.33;;;1.05;;
69325;SDS011;56471;53.508;49.252;2022-11-15T00:04:12;1.23;;;0.93;;
69325;SDS011;56471;53.508;49.252;2022-11-15T00:06:38;1.15;;;0.82;;
69325;SDS011;56471;53.508;49.252;2022-11-15T00:09:03;1.02;;;0.93;;
69325;SDS011;56471;53.508;49.252;2022-11-15T00:11:29;1.00;;;0.70;;
69325;SDS011;56471;53.508;49.252;2022-11-15T00:13:55;0.95;;;0.70;;
69325;SDS011;56471;53.508;49.252;2022-11-15T00:16:22;0.88;;;0.73;;
69325;SDS011;56471;53.508;49.252;2022-11-15T00:18:49;0.90;;;0.82;;
69325;SDS011;56471;53.508;49.252;2022-11-15T00:21:16;2.55;;;0.90;;
69325;SDS011;56471;53.508;49.252;2022-11-15T00:23:43;1.35;;;1.00;;
69325;SDS011;56471;53.508;49.252;2022-11-15T00:26:13;0.95;;;0.80;;
69325;SDS011;56471;53.508;49.252;2022-11-15T00:28:40;1.40;;;0.90;;
69325;SDS011;56471;53.508;49.252;2022-11-15T00:31:07;0.75;;;0.65;;
69325;SDS011;56471;53.508;49.252;2022-11-15T00:33:36;1.25;;;0.90;;
69325;SDS011;56471;53.508;49.252;2022-11-15T00:38:35;0.68;;;0.60;;
69325;SDS011;56471;53.508;49.252;2022-11-15T00:41:04;0.70;;;0.70;;
69325;SDS011;56471;53.508;49.252;2022-11-15T00:43:31;0.77;;;0.68;;
69325;SDS011;56471;53.508;49.252;2022-11-15T00:45:57;0.85;;;0.65;;
69325;SDS011;56471;53.508;49.252;2022-11-15T00:48:23;0.70;;;0.60;;
69325;SDS011;56471;53.508;49.252;2022-11-15T00:50:49;1.02;;;0.70;;
69325;SDS011;56471;53.508;49.252;2022-11-15T00:53:16;0.50;;;0.50;;
69325;SDS011;56471;53.508;49.252;2022-11-15T00:55:42;1.10;;;0.70;;
69325;SDS011;56471;53.508;49.252;2022-11-15T00:58:08;0.70;;;0.68;;
69325;SDS011;56471;53.508;49.252;2022-11-15T01:00:34;1.58;;;0.80;;
69325;SDS011;56471;53.508;49.252;2022-11-15T01:03:00;0.63;;;0.60;;
69325;SDS011;56471;53.508;49.252;2022-11-15T01:05:26;0.55;;;0.55;;
69325;SDS011;56471;53.508;49.252;2022-11-15T01:07:53;0.73;;;0.60;;
69325;SDS011;56471;53.508;49.252;2022-11-15T01:10:20;0.70;;;0.70;;
69325;SDS011;56471;53.508;49.252;2022-11-15T01:12:46;0.95;;;0.85;;
69325;SDS011;56471;53.508;49.252;2022-11-15T01:15:12;1.25;;;0.85;;
69325;SDS011;56471;53.508;49.252;2022-11-15T01:17:38;1.23;;;0.70;;
69325;SDS011;56471;53.508;49.252;2022-11-15T01:20:04;1.48;;;0.70;;
69325;SDS011;56471;53.508;49.252;2022-11-15T01:22:30;0.68;;;0.68;;
69325;SDS011;56471;53.508;49.252;2022-11-15T01:24:56;0.65;;;0.60;;
69325;SDS011;56471;53.508;49.252;2022-11-15T01:27:21;0.70;;;0.70;;
69325;SDS011;56471;53.508;49.252;2022-11-15T01:29:47;1.05;;;0.70;;
69325;SDS011;56471;53.508;49.252;2022-11-15T01:32:13;0.68;;;0.60;;
69325;SDS011;56471;53.508;49.252;2022-11-15T01:34:39;0.82;;;0.75;;
69325;SDS011;56471;53.508;49.252;2022-11-15T01:37:05;0.60;;;0.60;;
69325;SDS011;56471;53.508;49.252;2022-11-15T01:39:31;0.70;;;0.65;;
69325;SDS011;56471;53.508;49.252;2022-11-15T01:41:56;0.77;;;0.60;;
69325;SDS011;56471;53.508;49.252;2022-11-15T01:44:45;0.68;;;0.68;;
69325;SDS011;56471;53.508;49.252;2022-11-15T01:49:40;0.85;;;0.60;;
69325;SDS011;56471;53.508;49.252;2022-11-15T01:52:15;0.50;;;0.50;;
69325;SDS011;56471;53.508;49.252;2022-11-15T01:54:44;0.55;;;0.55;;
69325;SDS011;56471;53.508;49.252;2022-11-15T01:57:10;0.95;;;0.60;;
69325;SDS011;56471;53.508;49.252;2022-11-15T01:59:39;0.65;;;0.65;;
69325;SDS011;56471;53.508;49.252;2022-11-15T02:02:07;0.65;;;0.60;;
69325;SDS011;56471;53.508;49.252;2022-11-15T02:04:51;1.05;;;0.63;;
69325;SDS011;56471;53.508;49.252;2022-11-15T02:07:17;0.82;;;0.70;;
69325;SDS011;56471;53.508;49.252;2022-11-15T02:09:45;0.60;;;0.60;;
69325;SDS011;56471;53.508;49.252;2022-11-15T02:12:11;1.23;;;0.70;;
69325;SDS011;56471;53.508;49.252;2022-11-15T02:14:40;0.60;;;0.60;;
69325;SDS011;56471;53.508;49.252;2022-11-15T02:26:14;1.00;;;0.80;;
69325;SDS011;56471;53.508;49.252;2022-11-15T02:28:34;1.05;;;0.73;;
69325;SDS011;56471;53.508;49.252;2022-11-15T02:36:18;0.95;;;0.73;;
69325;SDS011;56471;53.508;49.252;2022-11-15T02:39:17;0.70;;;0.70;;
69325;SDS011;56471;53.508;49.252;2022-11-15T02:41:53;0.65;;;0.65;;
69325;SDS011;56471;53.508;49.252;2022-11-15T02:44:32;0.98;;;0.70;;
69325;SDS011;56471;53.508;49.252;2022-11-15T02:47:03;0.70;;;0.70;;
69325;SDS011;56471;53.508;49.252;2022-11-15T02:49:40;0.93;;;0.63;;
69325;SDS011;56471;53.508;49.252;2022-11-15T02:52:17;1.20;;;0.57;;
69325;SDS011;56471;53.508;49.252;2022-11-15T02:54:57;0.70;;;0.70;;
69325;SDS011;56471;53.508;49.252;2022-11-15T02:58:26;0.60;;;0.50;;
69325;SDS011;56471;53.508;49.252;2022-11-15T03:00:25;0.82;;;0.60;;
69325;SDS011;56471;53.508;49.252;2022-11-15T03:13:49;0.50;;;0.50;;
69325;SDS011;56471;53.508;49.252;2022-11-15T03:16:26;0.80;;;0.65;;
69325;SDS011;56471;53.508;49.252;2022-11-15T03:21:51;0.90;;;0.65;;
69325;SDS011;56471;53.508;49.252;2022-11-15T03:24:20;0.57;;;0.57;;
69325;SDS011;56471;53.508;49.252;2022-11-15T03:26:49;0.63;;;0.63;;
69325;SDS011;56471;53.508;49.252;2022-11-15T03:29:20;0.55;;;0.55;;
69325;SDS011;56471;53.508;49.252;2022-11-15T03:31:51;1.02;;;0.70;;
69325;SDS011;56471;53.508;49.252;2022-11-15T03:34:32;0.63;;;0.63;;
69325;SDS011;56471;53.508;49.252;2022-11-15T03:37:24;0.77;;;0.77;;
69325;SDS011;56471;53.508;49.252;2022-11-15T03:40:01;0.65;;;0.60;;
69325;SDS011;56471;53.508;49.252;2022-11-15T03:45:35;1.23;;;0.60;;
69325;SDS011;56471;53.508;49.252;2022-11-15T03:50:44;0.63;;;0.60;;
69325;SDS011;56471;53.508;49.252;2022-11-15T03:53:12;2.47;;;0.80;;
69325;SDS011;56471;53.508;49.252;2022-11-15T03:55:39;1.15;;;0.60;;
69325;SDS011;56471;53.508;49.252;2022-11-15T03:58:05;0.93;;;0.60;;
69325;SDS011;56471;53.508;49.252;2022-11-15T04:00:31;0.70;;;0.60;;
69325;SDS011;56471;53.508;49.252;2022-11-15T04:02:57;0.77;;;0.60;;
69325;SDS011;56471;53.508;49.252;2022-11-15T04:05:23;1.50;;;0.63;;
69325;SDS011;56471;53.508;49.252;2022-11-15T04:07:49;1.05;;;0.65;;
69325;SDS011;56471;53.508;49.252;2022-11-15T04:10:15;0.68;;;0.68;;
69325;SDS011;56471;53.508;49.252;2022-11-15T04:12:42;0.75;;;0.70;;
69325;SDS011;56471;53.508;49.252;2022-11-15T04:15:15;1.10;;;0.73;;
69325;SDS011;56471;53.508;49.252;2022-11-15T04:17:48;0.80;;;0.70;;
69325;SDS011;56471;53.508;49.252;2022-11-15T04:23:14;0.70;;;0.70;;
69325;SDS011;56471;53.508;49.252;2022-11-15T04:26:03;0.65;;;0.60;;
69325;SDS011;56471;53.508;49.252;2022-11-15T04:28:31;1.27;;;0.70;;
69325;SDS011;56471;53.508;49.252;2022-11-15T04:30:56;0.80;;;0.70;;
69325;SDS011;56471;53.508;49.252;2022-11-15T04:33:22;0.70;;;0.70;;
69325;SDS011;56471;53.508;49.252;2022-11-15T04:35:48;0.50;;;0.50;;
69325;SDS011;56471;53.508;49.252;2022-11-15T04:38:33;0.70;;;0.70;;
69325;SDS011;56471;53.508;49.252;2022-11-15T04:40:59;0.70;;;0.70;;
69325;SDS011;56471;53.508;49.252;2022-11-15T04:43:26;1.15;;;0.70;;
69325;SDS011;56471;53.508;49.252;2022-11-15T04:45:52;0.90;;;0.60;;
69325;SDS011;56471;53.508;49.252;2022-11-15T04:48:17;0.60;;;0.60;;
69325;SDS011;56471;53.508;49.252;2022-11-15T04:50:43;0.63;;;0.60;;
69325;SDS011;56471;53.508;49.252;2022-11-15T04:53:09;0.77;;;0.70;;
69325;SDS011;56471;53.508;49.252;2022-11-15T04:55:34;0.70;;;0.70;;
69325;SDS011;56471;53.508;49.252;2022-11-15T04:58:01;0.60;;;0.60;;
69325;SDS011;56471;53.508;49.252;2022-11-15T05:00:27;0.60;;;0.60;;
69325;SDS011;56471;53.508;49.252;2022-11-15T05:02:54;0.80;;;0.80;;
69325;SDS011;56471;53.508;49.252;2022-11-15T05:05:40;0.70;;;0.70;;
69325;SDS011;56471;53.508;49.252;2022-11-15T05:08:05;0.82;;;0.70;;
69325;SDS011;56471;53.508;49.252;2022-11-15T05:10:31;0.60;;;0.60;;
69325;SDS011;56471;53.508;49.252;2022-11-15T05:12:57;1.88;;;0.60;;
69325;SDS011;56471;53.508;49.252;2022-11-15T05:15:23;0.80;;;0.70;;
69325;SDS011;56471;53.508;49.252;2022-11-15T05:17:49;1.67;;;0.90;;
69325;SDS011;56471;53.508;49.252;2022-11-15T05:20:15;0.68;;;0.60;;
69325;SDS011;56471;53.508;49.252;2022-11-15T05:22:41;0.70;;;0.70;;
69325;SDS011;56471;53.508;49.252;2022-11-15T05:25:06;1.35;;;0.77;;
69325;SDS011;56471;53.508;49.252;2022-11-15T05:27:33;1.67;;;0.65;;
69325;SDS011;56471;53.508;49.252;2022-11-15T05:29:59;0.73;;;0.60;;
69325;SDS011;56471;53.508;49.252;2022-11-15T05:32:25;0.60;;;0.60;;
69325;SDS011;56471;53.508;49.252;2022-11-15T05:34:51;0.75;;;0.65;;
69325;SDS011;56471;53.508;49.252;2022-11-15T05:37:17;0.80;;;0.70;;
69325;SDS011;56471;53.508;49.252;2022-11-15T05:39:43;0.60;;;0.60;;
69325;SDS011;56471;53.508;49.252;2022-11-15T05:42:13;1.00;;;0.80;;
69325;SDS011;56471;53.508;49.252;2022-11-15T05:44:41;1.10;;;0.77;;
69325;SDS011;56471;53.508;49.252;2022-11-15T05:47:10;0.80;;;0.80;;
69325;SDS011;56471;53.508;49.252;2022-11-15T05:49:41;1.23;;;0.80;;
69325;SDS011;56471;53.508;49.252;2022-11-15T05:52:09;1.00;;;0.77;;
69325;SDS011;56471;53.508;49.252;2022-11-15T05:54:40;0.70;;;0.70;;
69325;SDS011;56471;53.508;49.252;2022-11-15T05:57:06;0.77;;;0.70;;
69325;SDS011;56471;53.508;49.252;2022-11-15T05:59:32;0.70;;;0.70;;
69325;SDS011;56471;53.508;49.252;2022-11-15T06:01:59;0.98;;;0.82;;
69325;SDS011;56471;53.508;49.252;2022-11-15T06:04:25;1.58;;;0.70;;
69325;SDS011;56471;53.508;49.252;2022-11-15T06:06:52;1.35;;;0.70;;
69325;SDS011;56471;53.508;49.252;2022-11-15T06:09:17;1.00;;;0.82;;
69325;SDS011;56471;53.508;49.252;2022-11-15T06:11:43;0.77;;;0.70;;
69325;SDS011;56471;53.508;49.252;2022-11-15T06:14:09;0.90;;;0.73;;
69325;SDS011;56471;53.508;49.252;2022-11-15T06:16:35;1.00;;;0.90;;
69325;SDS011;56471;53.508;49.252;2022-11-15T06:19:00;1.00;;;0.80;;
69325;SDS011;56471;53.508;49.252;2022-11-15T06:21:26;0.95;;;0.70;;
69325;SDS011;56471;53.508;49.252;2022-11-15T06:23:55;0.77;;;0.70;;
69325;SDS011;56471;53.508;49.252;2022-11-15T06:26:21;0.93;;;0.80;;
69325;SDS011;56471;53.508;49.252;2022-11-15T06:28:46;0.85;;;0.80;;
69325;SDS011;56471;53.508;49.252;2022-11-15T06:31:12;0.73;;;0.73;;
69325;SDS011;56471;53.508;49.252;2022-11-15T06:33:38;1.05;;;0.68;;
69325;SDS011;56471;53.508;49.252;2022-11-15T06:36:08;0.70;;;0.70;;
69325;SDS011;56471;53.508;49.252;2022-11-15T06:38:38;3.70;;;0.90;;
69325;SDS011;56471;53.508;49.252;2022-11-15T06:41:05;0.80;;;0.80;;
69325;SDS011;56471;53.508;49.252;2022-11-15T06:43:33;0.90;;;0.85;;
69325;SDS011;56471;53.508;49.252;2022-11-15T06:46:00;2.13;;;0.80;;
69325;SDS011;56471;53.508;49.252;2022-11-15T06:48:28;0.70;;;0.70;;
69325;SDS011;56471;53.508;49.252;2022-11-15T06:50:55;1.83;;;0.77;;
69325;SDS011;56471;53.508;49.252;2022-11-15T06:53:23;1.65;;;0.70;;
69325;SDS011;56471;53.508;49.252;2022-11-15T06:55:49;1.77;;;0.68;;
69325;SDS011;56471;53.508;49.252;2022-11-15T06:58:15;1.65;;;0.80;;
69325;SDS011;56471;53.508;49.252;2022-11-15T07:00:41;1.35;;;0.80;;
69325;SDS011;56471;53.508;49.252;2022-11-15T07:03:07;0.80;;;0.80;;
69325;SDS011;56471;53.508;49.252;2022-11-15T07:05:33;1.75;;;0.70;;
69325;SDS011;56471;53.508;49.252;2022-11-15T07:07:59;0.82;;;0.82;;
69325;SDS011;56471;53.508;49.252;2022-11-15T07:10:25;0.90;;;0.70;;
69325;SDS011;56471;53.508;49.252;2022-11-15T07:12:52;0.68;;;0.68;;
69325;SDS011;56471;53.508;49.252;2022-11-15T07:15:19;1.45;;;0.63;;
69325;SDS011;56471;53.508;49.252;2022-11-15T07:17:47;0.85;;;0.70;;
69325;SDS011;56471;53.508;49.252;2022-11-15T07:20:13;0.52;;;0.52;;
69325;SDS011;56471;53.508;49.252;2022-11-15T07:22:40;2.38;;;0.77;;
69325;SDS011;56471;53.508;49.252;2022-11-15T07:25:06;2.00;;;0.70;;
69325;SDS011;56471;53.508;49.252;2022-11-15T07:27:32;0.70;;;0.70;;
69325;SDS011;56471;53.508;49.252;2022-11-15T07:29:58;1.23;;;0.82;;
69325;SDS011;56471;53.508;49.252;2022-11-15T07:32:25;1.10;;;0.80;;
69325;SDS011;56471;53.508;49.252;2022-11-15T07:34:51;0.85;;;0.60;;
69325;SDS011;56471;53.508;49.252;2022-11-15T07:37:16;0.65;;;0.65;;
69325;SDS011;56471;53.508;49.252;2022-11-15T07:39:42;0.73;;;0.65;;
69325;SDS011;56471;53.508;49.252;2022-11-15T07:42:08;0.73;;;0.73;;
69325;SDS011;56471;53.508;49.252;2022-11-15T07:44:53;0.60;;;0.60;;
69325;SDS011;56471;53.508;49.252;2022-11-15T07:47:18;1.02;;;0.90;;
69325;SDS011;56471;53.508;49.252;2022-11-15T07:49:45;1.00;;;0.70;;
69325;SDS011;56471;53.508;49.252;2022-11-15T07:52:12;0.70;;;0.70;;
69325;SDS011;56471;53.508;49.252;2022-11-15T07:54:38;0.73;;;0.73;;
69325;SDS011;56471;53.508;49.252;2022-11-15T07:57:04;0.70;;;0.70;;
69325;SDS011;56471;53.508;49.252;2022-11-15T07:59:32;1.02;;;0.90;;
69325;SDS011;56471;53.508;49.252;2022-11-15T08:01:58;2.05;;;0.80;;
69325;SDS011;56471;53.508;49.252;2022-11-15T08:04:24;1.38;;;1.08;;
69325;SDS011;56471;53.508;49.252;2022-11-15T08:06:49;0.88;;;0.70;;
69325;SDS011;56471;53.508;49.252;2022-11-15T08:09:15;0.43;;;0.43;;
69325;SDS011;56471;53.508;49.252;2022-11-15T08:11:41;0.75;;;0.60;;
69325;SDS011;56471;53.508;49.252;2022-11-15T08:14:07;0.60;;;0.60;;
69325;SDS011;56471;53.508;49.252;2022-11-15T08:16:33;0.60;;;0.60;;
69325;SDS011;56471;53.508;49.252;2022-11-15T08:18:59;1.13;;;0.60;;
69325;SDS011;56471;53.508;49.252;2022-11-15T08:21:25;0.70;;;0.70;;
69325;SDS011;56471;53.508;49.252;2022-11-15T08:23:51;0.75;;;0.75;;
69325;SDS011;56471;53.508;49.252;2022-11-15T08:26:17;0.70;;;0.70;;
69325;SDS011;56471;53.508;49.252;2022-11-15T08:28:43;0.80;;;0.80;;
69325;SDS011;56471;53.508;49.252;2022-11-15T08:31:15;0.77;;;0.77;;
69325;SDS011;56471;53.508;49.252;2022-11-15T08:33:43;0.80;;;0.80;;
69325;SDS011;56471;53.508;49.252;2022-11-15T08:36:13;0.75;;;0.75;;
69325;SDS011;56471;53.508;49.252;2022-11-15T08:38:41;1.00;;;0.80;;
69325;SDS011;56471;53.508;49.252;2022-11-15T08:41:12;1.08;;;0.90;;
69325;SDS011;56471;53.508;49.252;2022-11-15T08:43:42;0.90;;;0.80;;
69325;SDS011;56471;53.508;49.252;2022-11-15T08:46:08;1.77;;;1.00;;
69325;SDS011;56471;53.508;49.252;2022-11-15T08:48:38;1.23;;;0.70;;
69325;SDS011;56471;53.508;49.252;2022-11-15T08:51:03;0.68;;;0.68;;
69325;SDS011;56471;53.508;49.252;2022-11-15T08:53:30;0.90;;;0.80;;
69325;SDS011;56471;53.508;49.252;2022-11-15T08:55:56;3.97;;;1.10;;
69325;SDS011;56471;53.508;49.252;2022-11-15T08:58:21;7.47;;;1.05;;
69325;SDS011;56471;53.508;49.252;2022-11-15T09:00:47;3.03;;;1.02;;
69325;SDS011;56471;53.508;49.252;2022-11-15T09:03:13;3.80;;;1.00;;
69325;SDS011;56471;53.508;49.252;2022-11-15T09:05:39;4.07;;;0.75;;
69325;SDS011;56471;53.508;49.252;2022-11-15T09:08:05;2.72;;;1.00;;
69325;SDS011;56471;53.508;49.252;2022-11-15T09:10:31;2.10;;;0.80;;
69325;SDS011;56471;53.508;49.252;2022-11-15T09:12:57;0.82;;;0.80;;
69325;SDS011;56471;53.508;49.252;2022-11-15T09:15:23;1.45;;;0.77;;
69325;SDS011;56471;53.508;49.252;2022-11-15T09:17:48;1.63;;;0.80;;
69325;SDS011;56471;53.508;49.252;2022-11-15T09:20:14;2.47;;;1.00;;
69325;SDS011;56471;53.508;49.252;2022-11-15T09:22:40;9.75;;;1.45;;
69325;SDS011;56471;53.508;49.252;2022-11-15T09:25:06;13.63;;;1.40;;
69325;SDS011;56471;53.508;49.252;2022-11-15T09:27:32;3.17;;;0.90;;
69325;SDS011;56471;53.508;49.252;2022-11-15T09:29:58;1.88;;;1.00;;
69325;SDS011;56471;53.508;49.252;2022-11-15T09:32:27;0.95;;;0.80;;
69325;SDS011;56471;53.508;49.252;2022-11-15T09:34:54;1.10;;;0.95;;
69325;SDS011;56471;53.508;49.252;2022-11-15T09:37:19;1.77;;;0.85;;
69325;SDS011;56471;53.508;49.252;2022-11-15T09:39:45;1.48;;;0.80;;
69325;SDS011;56471;53.508;49.252;2022-11-15T09:50:49;1.00;;;0.80;;
69325;SDS011;56471;53.508;49.252;2022-11-15T09:56:16;0.80;;;0.80;;
69325;SDS011;56471;53.508;49.252;2022-11-15T10:04:06;0.75;;;0.75;;
69325;SDS011;56471;53.508;49.252;2022-11-15T10:06:32;0.63;;;0.63;;
69325;SDS011;56471;53.508;49.252;2022-11-15T10:09:03;0.70;;;0.70;;
69325;SDS011;56471;53.508;49.252;2022-11-15T10:11:35;0.63;;;0.60;;
69325;SDS011;56471;53.508;49.252;2022-11-15T10:14:08;1.02;;;0.77;;
69325;SDS011;56471;53.508;49.252;2022-11-15T10:16:44;1.65;;;0.90;;
69325;SDS011;56471;53.508;49.252;2022-11-15T10:22:41;0.77;;;0.70;;
69325;SDS011;56471;53.508;49.252;2022-11-15T10:25:18;2.05;;;0.80;;
69325;SDS011;56471;53.508;49.252;2022-11-15T10:28:01;0.73;;;0.68;;
69325;SDS011;56471;53.508;49.252;2022-11-15T10:30:35;2.30;;;0.90;;
69325;SDS011;56471;53.508;49.252;2022-11-15T10:41:13;0.65;;;0.65;;
69325;SDS011;56471;53.508;49.252;2022-11-15T10:43:45;1.33;;;0.70;;
69325;SDS011;56471;53.508;49.252;2022-11-15T10:46:26;1.92;;;0.75;;
69325;SDS011;56471;53.508;49.252;2022-11-15T10:48:52;0.70;;;0.70;;
69325;SDS011;56471;53.508;49.252;2022-11-15T10:51:27;0.95;;;0.85;;
69325;SDS011;56471;53.508;49.252;2022-11-15T10:53:58;1.80;;;0.88;;
69325;SDS011;56471;53.508;49.252;2022-11-15T10:56:26;0.70;;;0.70;;
69325;SDS011;56471;53.508;49.252;2022-11-15T10:58:58;0.77;;;0.68;;
69325;SDS011;56471;53.508;49.252;2022-11-15T11:01:24;0.70;;;0.70;;
69325;SDS011;56471;53.508;49.252;2022-11-15T11:06:29;0.70;;;0.70;;
69325;SDS011;56471;53.508;49.252;2022-11-15T11:09:02;0.88;;;0.75;;
69325;SDS011;56471;53.508;49.252;2022-11-15T11:11:46;2.45;;;0.82;;
69325;SDS011;56471;53.508;49.252;2022-11-15T11:14:20;0.80;;;0.80;;
69325;SDS011;56471;53.508;49.252;2022-11-15T11:22:21;1.50;;;0.80;;
69325;SDS011;56471;53.508;49.252;2022-11-15T11:33:54;0.75;;;0.73;;
69325;SDS011;56471;53.508;49.252;2022-11-15T11:36:38;1.95;;;0.90;;
69325;SDS011;56471;53.508;49.252;2022-11-15T11:42:16;1.73;;;0.90;;
69325;SDS011;56471;53.508;49.252;2022-11-15T11:45:01;1.00;;;0.80;;
69325;SDS011;56471;53.508;49.252;2022-11-15T11:47:40;1.55;;;0.75;;
69325;SDS011;56471;53.508;49.252;2022-11-15T11:50:23;0.90;;;0.80;;
69325;SDS011;56471;53.508;49.252;2022-11-15T11:55:32;0.80;;;0.80;;
69325;SDS011;56471;53.508;49.252;2022-11-15T12:00:51;2.67;;;0.80;;
69325;SDS011;56471;53.508;49.252;2022-11-15T12:03:28;0.73;;;0.73;;
69325;SDS011;56471;53.508;49.252;2022-11-15T12:06:19;979.58;;;563.15;;
69325;SDS011;56471;53.508;49.252;2022-11-15T12:09:00;532.13;;;284.30;;
69325;SDS011;56471;53.508;49.252;2022-11-15T12:14:27;154.15;;;70.18;;
69325;SDS011;56471;53.508;49.252;2022-11-15T12:16:58;100.28;;;42.85;;
69325;SDS011;56471;53.508;49.252;2022-11-15T12:19:24;72.18;;;29.50;;
69325;SDS011;56471;53.508;49.252;2022-11-15T12:21:53;47.92;;;19.08;;
69325;SDS011;56471;53.508;49.252;2022-11-15T12:24:25;29.67;;;13.20;;
69325;SDS011;56471;53.508;49.252;2022-11-15T12:27:00;21.70;;;9.10;;
69325;SDS011;56471;53.508;49.252;2022-11-15T12:29:35;15.85;;;7.13;;
69325;SDS011;56471;53.508;49.252;2022-11-15T12:32:14;12.05;;;5.45;;
69325;SDS011;56471;53.508;49.252;2022-11-15T12:34:49;8.93;;;3.75;;
69325;SDS011;56471;53.508;49.252;2022-11-15T12:47:23;5.97;;;1.75;;
69325;SDS011;56471;53.508;49.252;2022-11-15T12:49:50;3.30;;;1.67;;
69325;SDS011;56471;53.508;49.252;2022-11-15T12:52:17;2.47;;;1.48;;
69325;SDS011;56471;53.508;49.252;2022-11-15T12:59:57;607.70;;;314.02;;
69325;SDS011;56471;53.508;49.252;2022-11-15T13:02:27;383.98;;;170.07;;
69325;SDS011;56471;53.508;49.252;2022-11-15T13:17:39;63.10;;;25.77;;
69325;SDS011;56471;53.508;49.252;2022-11-15T13:27:51;23.50;;;9.35;;
69325;SDS011;56471;53.508;49.252;2022-11-15T13:30:21;19.10;;;8.02;;
69325;SDS011;56471;53.508;49.252;2022-11-15T13:32:49;18.20;;;7.32;;
69325;SDS011;56471;53.508;49.252;2022-11-15T13:35:20;15.05;;;6.20;;
69325;SDS011;56471;53.508;49.252;2022-11-15T13:37:48;16.00;;;6.00;;
69325;SDS011;56471;53.508;49.252;2022-11-15T13:40:18;12.77;;;5.05;;
69325;SDS011;56471;53.508;49.252;2022-11-15T13:42:55;13.20;;;5.03;;
69325;SDS011;56471;53.508;49.252;2022-11-15T13:45:21;11.05;;;4.35;;
69325;SDS011;56471;53.508;49.252;2022-11-15T13:47:51;11.05;;;4.47;;
69325;SDS011;56471;53.508;49.252;2022-11-15T13:50:25;8.30;;;3.90;;
69325;SDS011;56471;53.508;49.252;2022-11-15T13:52:55;8.52;;;3.47;;
69325;SDS011;56471;53.508;49.252;2022-11-15T13:55:23;8.40;;;3.67;;
69325;SDS011;56471;53.508;49.252;2022-11-15T13:57:51;8.30;;;3.08;;
69325;SDS011;56471;53.508;49.252;2022-11-15T14:05:46;7.68;;;2.85;;
69325;SDS011;56471;53.508;49.252;2022-11-15T14:08:32;6.50;;;2.75;;
69325;SDS011;56471;53.508;49.252;2022-11-15T14:13:37;6.93;;;2.83;;
69325;SDS011;56471;53.508;49.252;2022-11-15T14:16:17;6.18;;;2.65;;
69325;SDS011;56471;53.508;49.252;2022-11-15T14:18:48;5.07;;;2.28;;
69325;SDS011;56471;53.508;49.252;2022-11-15T14:21:34;5.50;;;2.30;;
69325;SDS011;56471;53.508;49.252;2022-11-15T14:26:43;4.50;;;2.20;;
69325;SDS011;56471;53.508;49.252;2022-11-15T14:29:28;4.85;;;2.00;;
69325;SDS011;56471;53.508;49.252;2022-11-15T14:32:11;4.40;;;1.90;;
69325;SDS011;56471;53.508;49.252;2022-11-15T14:34:40;5.55;;;2.20;;
69325;SDS011;56471;53.508;49.252;2022-11-15T14:37:09;3.83;;;2.05;;
69325;SDS011;56471;53.508;49.252;2022-11-15T14:39:52;3.47;;;1.90;;
69325;SDS011;56471;53.508;49.252;2022-11-15T14:42:18;5.72;;;2.38;;
69325;SDS011;56471;53.508;49.252;2022-11-15T14:44:45;5.93;;;2.15;;
69325;SDS011;56471;53.508;49.252;2022-11-15T14:47:11;5.95;;;2.10;;
69325;SDS011;56471;53.508;49.252;2022-11-15T14:49:37;5.00;;;2.15;;
69325;SDS011;56471;53.508;49.252;2022-11-15T14:52:07;3.97;;;2.05;;
69325;SDS011;56471;53.508;49.252;2022-11-15T14:54:52;4.95;;;2.10;;
69325;SDS011;56471;53.508;49.252;2022-11-15T14:57:18;4.00;;;2.20;;
69325;SDS011;56471;53.508;49.252;2022-11-15T14:59:44;4.95;;;2.10;;
69325;SDS011;56471;53.508;49.252;2022-11-15T15:02:13;3.80;;;2.03;;
69325;SDS011;56471;53.508;49.252;2022-11-15T15:04:42;4.03;;;1.55;;
69325;SDS011;56471;53.508;49.252;2022-11-15T15:07:07;4.50;;;1.95;;
69325;SDS011;56471;53.508;49.252;2022-11-15T15:09:33;6.57;;;2.22;;
69325;SDS011;56471;53.508;49.252;2022-11-15T15:11:59;4.53;;;2.05;;
69325;SDS011;56471;53.508;49.252;2022-11-15T15:14:25;3.75;;;1.70;;
69325;SDS011;56471;53.508;49.252;2022-11-15T15:16:51;4.85;;;1.80;;
69325;SDS011;56471;53.508;49.252;2022-11-15T15:19:16;3.15;;;1.70;;
69325;SDS011;56471;53.508;49.252;2022-11-15T15:21:42;3.80;;;2.10;;
69325;SDS011;56471;53.508;49.252;2022-11-15T15:24:16;2.70;;;1.60;;
69325;SDS011;56471;53.508;49.252;2022-11-15T15:26:42;3.10;;;1.80;;
69325;SDS011;56471;53.508;49.252;2022-11-15T15:29:08;12.68;;;4.53;;
69325;SDS011;56471;53.508;49.252;2022-11-15T15:31:34;581.05;;;294.20;;
69325;SDS011;56471;53.508;49.252;2022-11-15T15:34:00;834.38;;;480.67;;
69325;SDS011;56471;53.508;49.252;2022-11-15T15:36:26;510.50;;;278.33;;
69325;SDS011;56471;53.508;49.252;2022-11-15T15:38:52;307.55;;;141.35;;
69325;SDS011;56471;53.508;49.252;2022-11-15T15:41:18;184.00;;;87.55;;
69325;SDS011;56471;53.508;49.252;2022-11-15T15:43:44;124.22;;;55.75;;
69325;SDS011;56471;53.508;49.252;2022-11-15T15:46:10;93.55;;;39.85;;
69325;SDS011;56471;53.508;49.252;2022-11-15T15:48:38;72.80;;;29.63;;
69325;SDS011;56471;53.508;49.252;2022-11-15T15:51:05;47.55;;;20.70;;
69325;SDS011;56471;53.508;49.252;2022-11-15T15:53:31;35.42;;;15.38;;
69325;SDS011;56471;53.508;49.252;2022-11-15T15:55:57;24.15;;;10.65;;
69325;SDS011;56471;53.508;49.252;2022-11-15T15:58:22;19.92;;;8.45;;
69325;SDS011;56471;53.508;49.252;2022-11-15T16:00:48;13.77;;;6.70;;
69325;SDS011;56471;53.508;49.252;2022-11-15T16:03:14;12.02;;;5.80;;
69325;SDS011;56471;53.508;49.252;2022-11-15T16:05:40;9.95;;;4.90;;
69325;SDS011;56471;53.508;49.252;2022-11-15T16:08:07;8.93;;;4.40;;
69325;SDS011;56471;53.508;49.252;2022-11-15T16:10:42;7.55;;;3.70;;
69325;SDS011;56471;53.508;49.252;2022-11-15T16:13:08;5.30;;;2.90;;
69325;SDS011;56471;53.508;49.252;2022-11-15T16:15:34;5.75;;;2.70;;
69325;SDS011;56471;53.508;49.252;2022-11-15T16:18:00;6.22;;;2.50;;
69325;SDS011;56471;53.508;49.252;2022-11-15T16:20:31;4.95;;;2.53;;
69325;SDS011;56471;53.508;49.252;2022-11-15T16:22:59;3.65;;;2.30;;
69325;SDS011;56471;53.508;49.252;2022-11-15T16:25:26;5.03;;;2.28;;
69325;SDS011;56471;53.508;49.252;2022-11-15T16:27:52;3.80;;;2.00;;
69325;SDS011;56471;53.508;49.252;2022-11-15T16:30:19;2.90;;;1.80;;
69325;SDS011;56471;53.508;49.252;2022-11-15T16:32:46;3.00;;;1.77;;
69325;SDS011;56471;53.508;49.252;2022-11-15T16:35:13;2.60;;;1.70;;
69325;SDS011;56471;53.508;49.252;2022-11-15T16:37:41;3.42;;;1.80;;
69325;SDS011;56471;53.508;49.252;2022-11-15T16:40:30;3.35;;;1.60;;
69325;SDS011;56471;53.508;49.252;2022-11-15T16:42:56;2.65;;;1.85;;
69325;SDS011;56471;53.508;49.252;2022-11-15T16:45:24;2.75;;;1.40;;
69325;SDS011;56471;53.508;49.252;2022-11-15T16:47:50;2.47;;;1.70;;
69325;SDS011;56471;53.508;49.252;2022-11-15T16:50:27;2.25;;;1.42;;
69325;SDS011;56471;53.508;49.252;2022-11-15T16:52:57;2.70;;;1.58;;
69325;SDS011;56471;53.508;49.252;2022-11-15T16:55:25;3.03;;;1.30;;
69325;SDS011;56471;53.508;49.252;2022-11-15T16:57:52;1.83;;;1.30;;
69325;SDS011;56471;53.508;49.252;2022-11-15T17:00:19;2.70;;;1.48;;
69325;SDS011;56471;53.508;49.252;2022-11-15T17:02:46;2.00;;;1.30;;
69325;SDS011;56471;53.508;49.252;2022-11-15T17:05:13;2.15;;;1.30;;
69325;SDS011;56471;53.508;49.252;2022-11-15T17:07:45;2.50;;;1.30;;